Terminal Aerodrome Forecast
Issued by NWS

Home | Current Version | Previous Version | Text Only | Print | Product List | Glossary On
Versions: 1 2 3 4 5 6 7 8 9 10 11 12 13 14 15 16 17 18
050
FTPA31 PHFO 191459 AAA
TAFHMK
TAF AMD
PHMK 191459Z 1915/2012 35014G22KT P6SM VCSH SCT025 BKN035
      TEMPO 1915/1918 BKN025
     FM192000 02020G30KT P6SM FEW025 SCT040 BKN200
     FM200400 03014G22KT P6SM FEW025 SCT040 BKN200=

USA.gov is the U.S. government's official web portal to all federal, state and local government web resources and services.